Alpena, MI

9:34 PM EST on February 12, 2016 (GMT -0500)
APRSWXNET | | Change Station
CLOSE
Current Station
Personal Weather Station
Location: Alpena, MI
Elevation: 593 ft
Nearby Weather Stations
Active Advisory: Wind Chill Advisory

Elev 593 ft 45.05 °N, 83.45 °W | Updated 20 minutes ago

Overcast
Overcast
4 °F
Feels Like -11 °F
N
10
Wind Variable Wind from WNW
Gusts 21.0 mph

Today
High -- | Low -- °F
--% Chance of Precip.
Yesterday
High -- | Low -- °F
Precip. -- in
Pressure 30.18 in
Visibility 5.0 miles
Clouds Overcast 4000 ft
Windchill -11 °F
Dew Point -2 °F
Humidity 74%
Rainfall in
Snow Depth Not available.
7:40 AM 5:56 PM
Waxing Crescent, 26% visible
METAR KAPN 130154Z AUTO 31017G26KT 5SM -SN OVC040 M16/M22 A3013 RMK AO2 PK WND 30027/0125 UPE22B41E51SNB30E41B51 SLP219 P0000 T11561222
Pressure 30.18 in
Visibility 5.0 miles
Clouds Overcast 4000 ft
Windchill -11 °F
Dew Point -2 °F
Humidity 74%
Rainfall in
Snow Depth Not available.
7:40 AM 5:56 PM
Waxing Crescent, 26% visible
METAR KAPN 130154Z AUTO 31017G26KT 5SM -SN OVC040 M16/M22 A3013 RMK AO2 PK WND 30027/0125 UPE22B41E51SNB30E41B51 SLP219 P0000 T11561222

10-Day Weather Forecast

Almanac

Astronomy

Feb. 12, 2016 Rise Set
Actual Time
Civil Twilight
Nautical Twilight
Astronomical Twilight
Moon
Length of Visible Light
Length of Day
Tomorrow will be .
, % of the Moon is Illuminated

Today's Extremes

State Highs State Lows

Community

WunderPhotos

Upload Photos

1,892,464 photos uploaded!

WunderBlog® & News

Nearby

Air Quality

  Air Quality AQ Index Pollutant
Not available.

Snow Depth

Station Depth Elevation

Earthquake Activity

City Distance Mag. Time & Date
Minimum magnitude displayed is 2.5.

Coastal Water Temperatures

Place Temperature

Stations

Nearby Weather Stations

Station Location Temp. Windchill Dew Point Humidity Wind Precip. Elev Updated Type
                   

Watches & Warnings

Wind Chill Advisory
Issued: 9:14 PM EST Feb. 12, 2016 – National Weather Service

... Wind Chill Advisory remains in effect until noon EST
Saturday...

* wind chill values will reach 20 to 25 below zero late tonight
and Saturday morning.

* The coldest readings are expected along the Lake Huron coast...
   including Cheboygan and Rogers City.

Precautionary/preparedness actions...

A Wind Chill Advisory means that very cold air and winds will
combine to generate low wind chills. This will result in frost
bite and lead to hypothermia if precautions are not taken. If you
must venture outdoors... make sure you wear a hat and gloves.